sensor_id;sensor_type;location;lat;lon;timestamp;P1;durP1;ratioP1;P2;durP2;ratioP2
21107;SDS011;10712;52.944;9.098;2022-10-16T00:00:44;1.60;;;1.10;;
21107;SDS011;10712;52.944;9.098;2022-10-16T00:03:10;6.80;;;1.20;;
21107;SDS011;10712;52.944;9.098;2022-10-16T00:05:40;2.53;;;1.50;;
21107;SDS011;10712;52.944;9.098;2022-10-16T00:08:08;4.53;;;1.30;;
21107;SDS011;10712;52.944;9.098;2022-10-16T00:10:36;4.18;;;1.90;;
21107;SDS011;10712;52.944;9.098;2022-10-16T00:13:03;4.28;;;1.10;;
21107;SDS011;10712;52.944;9.098;2022-10-16T00:15:30;1.45;;;1.10;;
21107;SDS011;10712;52.944;9.098;2022-10-16T00:18:01;1.93;;;1.03;;
21107;SDS011;10712;52.944;9.098;2022-10-16T00:20:29;3.33;;;1.27;;
21107;SDS011;10712;52.944;9.098;2022-10-16T00:22:56;2.88;;;1.20;;
21107;SDS011;10712;52.944;9.098;2022-10-16T00:25:22;1.55;;;1.10;;
21107;SDS011;10712;52.944;9.098;2022-10-16T00:27:48;3.60;;;1.00;;
21107;SDS011;10712;52.944;9.098;2022-10-16T00:30:14;2.42;;;1.15;;
21107;SDS011;10712;52.944;9.098;2022-10-16T00:32:39;3.22;;;0.95;;
21107;SDS011;10712;52.944;9.098;2022-10-16T00:35:05;1.73;;;0.98;;
21107;SDS011;10712;52.944;9.098;2022-10-16T00:37:31;2.10;;;0.95;;
21107;SDS011;10712;52.944;9.098;2022-10-16T00:39:57;4.85;;;1.40;;
21107;SDS011;10712;52.944;9.098;2022-10-16T00:42:23;11.20;;;1.10;;
21107;SDS011;10712;52.944;9.098;2022-10-16T00:44:50;1.85;;;1.17;;
21107;SDS011;10712;52.944;9.098;2022-10-16T00:47:26;2.05;;;1.00;;
21107;SDS011;10712;52.944;9.098;2022-10-16T00:50:00;2.35;;;1.40;;
21107;SDS011;10712;52.944;9.098;2022-10-16T00:52:35;2.75;;;1.48;;
21107;SDS011;10712;52.944;9.098;2022-10-16T00:55:04;2.05;;;1.45;;
21107;SDS011;10712;52.944;9.098;2022-10-16T00:57:33;4.03;;;1.40;;
21107;SDS011;10712;52.944;9.098;2022-10-16T00:59:59;1.45;;;1.20;;
21107;SDS011;10712;52.944;9.098;2022-10-16T01:02:26;3.63;;;1.60;;
21107;SDS011;10712;52.944;9.098;2022-10-16T01:04:52;2.67;;;1.30;;
21107;SDS011;10712;52.944;9.098;2022-10-16T01:07:28;1.65;;;1.33;;
21107;SDS011;10712;52.944;9.098;2022-10-16T01:13:01;1.75;;;1.58;;
21107;SDS011;10712;52.944;9.098;2022-10-16T01:18:38;3.47;;;1.50;;
21107;SDS011;10712;52.944;9.098;2022-10-16T01:21:40;3.25;;;1.80;;
21107;SDS011;10712;52.944;9.098;2022-10-16T01:29:34;1.90;;;1.70;;
21107;SDS011;10712;52.944;9.098;2022-10-16T01:32:41;2.97;;;1.35;;
21107;SDS011;10712;52.944;9.098;2022-10-16T01:35:29;4.22;;;1.48;;
21107;SDS011;10712;52.944;9.098;2022-10-16T01:38:12;2.88;;;1.90;;
21107;SDS011;10712;52.944;9.098;2022-10-16T01:40:46;4.82;;;2.20;;
21107;SDS011;10712;52.944;9.098;2022-10-16T01:43:25;2.78;;;1.67;;
21107;SDS011;10712;52.944;9.098;2022-10-16T01:45:59;1.98;;;1.50;;
21107;SDS011;10712;52.944;9.098;2022-10-16T01:48:26;1.75;;;1.45;;
21107;SDS011;10712;52.944;9.098;2022-10-16T01:50:57;3.63;;;1.50;;
21107;SDS011;10712;52.944;9.098;2022-10-16T01:53:31;2.78;;;1.75;;
21107;SDS011;10712;52.944;9.098;2022-10-16T01:55:58;3.95;;;2.08;;
21107;SDS011;10712;52.944;9.098;2022-10-16T01:58:29;2.90;;;1.95;;
21107;SDS011;10712;52.944;9.098;2022-10-16T02:01:01;4.45;;;2.33;;
21107;SDS011;10712;52.944;9.098;2022-10-16T02:03:30;4.55;;;1.98;;
21107;SDS011;10712;52.944;9.098;2022-10-16T02:05:59;2.53;;;2.00;;
21107;SDS011;10712;52.944;9.098;2022-10-16T02:08:25;3.78;;;1.67;;
21107;SDS011;10712;52.944;9.098;2022-10-16T02:10:55;2.00;;;1.60;;
21107;SDS011;10712;52.944;9.098;2022-10-16T02:13:28;2.13;;;1.42;;
21107;SDS011;10712;52.944;9.098;2022-10-16T02:16:12;3.65;;;1.70;;
21107;SDS011;10712;52.944;9.098;2022-10-16T02:18:39;3.40;;;1.55;;
21107;SDS011;10712;52.944;9.098;2022-10-16T02:21:25;2.80;;;1.85;;
21107;SDS011;10712;52.944;9.098;2022-10-16T02:26:52;3.55;;;1.75;;
21107;SDS011;10712;52.944;9.098;2022-10-16T02:29:38;2.60;;;1.88;;
21107;SDS011;10712;52.944;9.098;2022-10-16T02:32:19;2.85;;;2.08;;
21107;SDS011;10712;52.944;9.098;2022-10-16T02:34:49;4.78;;;2.15;;
21107;SDS011;10712;52.944;9.098;2022-10-16T02:37:17;5.45;;;2.75;;
21107;SDS011;10712;52.944;9.098;2022-10-16T02:39:44;6.32;;;2.30;;
21107;SDS011;10712;52.944;9.098;2022-10-16T02:42:11;2.22;;;1.80;;
21107;SDS011;10712;52.944;9.098;2022-10-16T02:44:39;4.40;;;2.08;;
21107;SDS011;10712;52.944;9.098;2022-10-16T02:47:05;3.92;;;2.30;;
21107;SDS011;10712;52.944;9.098;2022-10-16T02:49:31;7.63;;;2.72;;
21107;SDS011;10712;52.944;9.098;2022-10-16T02:51:57;6.28;;;3.40;;
21107;SDS011;10712;52.944;9.098;2022-10-16T02:54:23;3.47;;;2.85;;
21107;SDS011;10712;52.944;9.098;2022-10-16T02:56:49;7.05;;;3.50;;
21107;SDS011;10712;52.944;9.098;2022-10-16T02:59:15;4.80;;;3.53;;
21107;SDS011;10712;52.944;9.098;2022-10-16T03:01:41;7.35;;;3.60;;
21107;SDS011;10712;52.944;9.098;2022-10-16T03:04:07;5.53;;;3.85;;
21107;SDS011;10712;52.944;9.098;2022-10-16T03:06:33;4.95;;;3.58;;
21107;SDS011;10712;52.944;9.098;2022-10-16T03:08:59;5.55;;;4.10;;
21107;SDS011;10712;52.944;9.098;2022-10-16T03:11:25;5.65;;;4.20;;
21107;SDS011;10712;52.944;9.098;2022-10-16T03:13:51;6.03;;;4.88;;
21107;SDS011;10712;52.944;9.098;2022-10-16T03:16:17;6.90;;;5.05;;
21107;SDS011;10712;52.944;9.098;2022-10-16T03:18:43;8.07;;;5.50;;
21107;SDS011;10712;52.944;9.098;2022-10-16T03:21:12;7.90;;;5.53;;
21107;SDS011;10712;52.944;9.098;2022-10-16T03:23:38;5.55;;;5.05;;
21107;SDS011;10712;52.944;9.098;2022-10-16T03:26:04;9.00;;;5.70;;
21107;SDS011;10712;52.944;9.098;2022-10-16T03:28:29;8.27;;;5.20;;
21107;SDS011;10712;52.944;9.098;2022-10-16T03:30:55;10.93;;;6.00;;
21107;SDS011;10712;52.944;9.098;2022-10-16T03:33:21;8.60;;;5.35;;
21107;SDS011;10712;52.944;9.098;2022-10-16T03:35:50;11.10;;;5.78;;
21107;SDS011;10712;52.944;9.098;2022-10-16T03:38:18;12.43;;;6.07;;
21107;SDS011;10712;52.944;9.098;2022-10-16T03:40:44;7.50;;;5.88;;
21107;SDS011;10712;52.944;9.098;2022-10-16T03:43:10;9.70;;;5.78;;
21107;SDS011;10712;52.944;9.098;2022-10-16T03:45:35;7.95;;;5.38;;
21107;SDS011;10712;52.944;9.098;2022-10-16T03:48:01;12.02;;;6.57;;
21107;SDS011;10712;52.944;9.098;2022-10-16T03:50:28;7.68;;;5.32;;
21107;SDS011;10712;52.944;9.098;2022-10-16T03:52:54;9.82;;;5.18;;
21107;SDS011;10712;52.944;9.098;2022-10-16T03:55:20;8.77;;;5.70;;
21107;SDS011;10712;52.944;9.098;2022-10-16T03:57:46;12.35;;;6.65;;
21107;SDS011;10712;52.944;9.098;2022-10-16T04:00:12;5.82;;;5.13;;
21107;SDS011;10712;52.944;9.098;2022-10-16T04:02:39;9.65;;;5.53;;
21107;SDS011;10712;52.944;9.098;2022-10-16T04:05:06;9.25;;;5.68;;
21107;SDS011;10712;52.944;9.098;2022-10-16T04:07:32;9.90;;;5.82;;
21107;SDS011;10712;52.944;9.098;2022-10-16T04:09:58;9.48;;;6.25;;
21107;SDS011;10712;52.944;9.098;2022-10-16T04:12:24;11.02;;;6.13;;
21107;SDS011;10712;52.944;9.098;2022-10-16T04:14:51;6.07;;;5.15;;
21107;SDS011;10712;52.944;9.098;2022-10-16T04:17:17;8.07;;;5.30;;
21107;SDS011;10712;52.944;9.098;2022-10-16T04:19:43;8.52;;;5.28;;
21107;SDS011;10712;52.944;9.098;2022-10-16T04:22:08;6.35;;;4.60;;
21107;SDS011;10712;52.944;9.098;2022-10-16T04:24:34;8.55;;;5.47;;
21107;SDS011;10712;52.944;9.098;2022-10-16T04:27:00;9.98;;;5.15;;
21107;SDS011;10712;52.944;9.098;2022-10-16T04:29:26;7.50;;;5.18;;
21107;SDS011;10712;52.944;9.098;2022-10-16T04:31:52;5.75;;;4.70;;
21107;SDS011;10712;52.944;9.098;2022-10-16T04:34:18;5.82;;;4.07;;
21107;SDS011;10712;52.944;9.098;2022-10-16T04:36:43;7.82;;;4.57;;
21107;SDS011;10712;52.944;9.098;2022-10-16T04:39:13;8.10;;;5.03;;
21107;SDS011;10712;52.944;9.098;2022-10-16T04:41:39;9.13;;;4.75;;
21107;SDS011;10712;52.944;9.098;2022-10-16T04:44:04;6.47;;;5.13;;
21107;SDS011;10712;52.944;9.098;2022-10-16T04:46:30;12.30;;;5.10;;
21107;SDS011;10712;52.944;9.098;2022-10-16T04:48:56;8.70;;;4.72;;
21107;SDS011;10712;52.944;9.098;2022-10-16T04:51:22;6.85;;;4.55;;
21107;SDS011;10712;52.944;9.098;2022-10-16T04:53:47;8.25;;;4.72;;
21107;SDS011;10712;52.944;9.098;2022-10-16T04:56:13;6.57;;;4.30;;
21107;SDS011;10712;52.944;9.098;2022-10-16T04:58:40;7.95;;;4.88;;
21107;SDS011;10712;52.944;9.098;2022-10-16T05:01:06;6.05;;;4.07;;
21107;SDS011;10712;52.944;9.098;2022-10-16T05:03:32;11.05;;;5.53;;
21107;SDS011;10712;52.944;9.098;2022-10-16T05:05:57;5.68;;;4.65;;
21107;SDS011;10712;52.944;9.098;2022-10-16T05:08:23;9.20;;;6.20;;
21107;SDS011;10712;52.944;9.098;2022-10-16T05:10:49;7.03;;;4.95;;
21107;SDS011;10712;52.944;9.098;2022-10-16T05:13:15;6.72;;;5.18;;
21107;SDS011;10712;52.944;9.098;2022-10-16T05:15:40;8.07;;;5.25;;
21107;SDS011;10712;52.944;9.098;2022-10-16T05:18:06;9.30;;;5.32;;
21107;SDS011;10712;52.944;9.098;2022-10-16T05:20:34;6.70;;;5.60;;
21107;SDS011;10712;52.944;9.098;2022-10-16T05:23:00;8.05;;;5.28;;
21107;SDS011;10712;52.944;9.098;2022-10-16T05:25:25;6.80;;;4.75;;
21107;SDS011;10712;52.944;9.098;2022-10-16T05:27:51;6.10;;;5.35;;
21107;SDS011;10712;52.944;9.098;2022-10-16T05:30:17;9.88;;;5.88;;
21107;SDS011;10712;52.944;9.098;2022-10-16T05:32:49;12.85;;;5.47;;
21107;SDS011;10712;52.944;9.098;2022-10-16T05:35:16;6.05;;;5.13;;
21107;SDS011;10712;52.944;9.098;2022-10-16T05:37:44;7.30;;;4.95;;
21107;SDS011;10712;52.944;9.098;2022-10-16T05:40:11;9.45;;;5.95;;
21107;SDS011;10712;52.944;9.098;2022-10-16T05:42:38;8.70;;;6.03;;
21107;SDS011;10712;52.944;9.098;2022-10-16T05:45:05;9.73;;;5.78;;
21107;SDS011;10712;52.944;9.098;2022-10-16T05:47:33;7.72;;;5.35;;
21107;SDS011;10712;52.944;9.098;2022-10-16T05:49:59;11.45;;;6.32;;
21107;SDS011;10712;52.944;9.098;2022-10-16T05:52:26;9.70;;;5.70;;
21107;SDS011;10712;52.944;9.098;2022-10-16T05:54:52;9.10;;;5.97;;
21107;SDS011;10712;52.944;9.098;2022-10-16T05:57:18;6.40;;;5.78;;
21107;SDS011;10712;52.944;9.098;2022-10-16T05:59:43;7.93;;;4.75;;
21107;SDS011;10712;52.944;9.098;2022-10-16T06:02:12;9.07;;;5.70;;
21107;SDS011;10712;52.944;9.098;2022-10-16T06:04:38;10.27;;;5.35;;
21107;SDS011;10712;52.944;9.098;2022-10-16T06:07:04;9.40;;;5.65;;
21107;SDS011;10712;52.944;9.098;2022-10-16T06:09:30;10.25;;;5.43;;
21107;SDS011;10712;52.944;9.098;2022-10-16T06:11:56;8.13;;;4.78;;
21107;SDS011;10712;52.944;9.098;2022-10-16T06:14:22;7.25;;;4.88;;
21107;SDS011;10712;52.944;9.098;2022-10-16T06:16:47;6.60;;;4.82;;
21107;SDS011;10712;52.944;9.098;2022-10-16T06:19:13;7.32;;;4.68;;
21107;SDS011;10712;52.944;9.098;2022-10-16T06:21:41;9.48;;;4.93;;
21107;SDS011;10712;52.944;9.098;2022-10-16T06:24:07;17.17;;;8.95;;
21107;SDS011;10712;52.944;9.098;2022-10-16T06:26:34;23.40;;;16.15;;
21107;SDS011;10712;52.944;9.098;2022-10-16T06:29:00;12.05;;;10.00;;
21107;SDS011;10712;52.944;9.098;2022-10-16T06:31:26;12.50;;;6.65;;
21107;SDS011;10712;52.944;9.098;2022-10-16T06:33:56;6.35;;;5.45;;
21107;SDS011;10712;52.944;9.098;2022-10-16T06:36:23;9.30;;;5.32;;
21107;SDS011;10712;52.944;9.098;2022-10-16T06:38:50;9.35;;;5.05;;
21107;SDS011;10712;52.944;9.098;2022-10-16T06:41:17;8.00;;;4.75;;
21107;SDS011;10712;52.944;9.098;2022-10-16T06:43:46;7.28;;;4.15;;
21107;SDS011;10712;52.944;9.098;2022-10-16T06:46:14;6.20;;;4.03;;
21107;SDS011;10712;52.944;9.098;2022-10-16T06:48:43;7.15;;;4.13;;
21107;SDS011;10712;52.944;9.098;2022-10-16T06:51:10;7.75;;;4.50;;
21107;SDS011;10712;52.944;9.098;2022-10-16T06:53:45;7.32;;;4.72;;
21107;SDS011;10712;52.944;9.098;2022-10-16T06:58:47;5.75;;;3.75;;
21107;SDS011;10712;52.944;9.098;2022-10-16T07:01:15;6.15;;;3.97;;
21107;SDS011;10712;52.944;9.098;2022-10-16T07:03:44;5.43;;;3.88;;
21107;SDS011;10712;52.944;9.098;2022-10-16T07:06:12;6.63;;;4.00;;
21107;SDS011;10712;52.944;9.098;2022-10-16T07:08:42;7.30;;;5.00;;
21107;SDS011;10712;52.944;9.098;2022-10-16T07:11:11;26.65;;;16.20;;
21107;SDS011;10712;52.944;9.098;2022-10-16T07:13:41;14.00;;;12.30;;
21107;SDS011;10712;52.944;9.098;2022-10-16T07:16:12;7.85;;;6.40;;
21107;SDS011;10712;52.944;9.098;2022-10-16T07:18:44;5.45;;;4.93;;
21107;SDS011;10712;52.944;9.098;2022-10-16T07:21:15;8.98;;;4.22;;
21107;SDS011;10712;52.944;9.098;2022-10-16T07:23:45;4.05;;;3.65;;
21107;SDS011;10712;52.944;9.098;2022-10-16T07:26:36;6.32;;;3.47;;
21107;SDS011;10712;52.944;9.098;2022-10-16T07:29:04;7.95;;;3.72;;
21107;SDS011;10712;52.944;9.098;2022-10-16T07:31:45;4.90;;;3.30;;
21107;SDS011;10712;52.944;9.098;2022-10-16T07:34:13;16.52;;;13.35;;
21107;SDS011;10712;52.944;9.098;2022-10-16T07:36:41;16.70;;;13.85;;
21107;SDS011;10712;52.944;9.098;2022-10-16T07:39:07;12.02;;;9.23;;
21107;SDS011;10712;52.944;9.098;2022-10-16T07:41:33;9.02;;;6.25;;
21107;SDS011;10712;52.944;9.098;2022-10-16T07:44:02;6.93;;;4.05;;
21107;SDS011;10712;52.944;9.098;2022-10-16T07:46:28;41.33;;;26.52;;
21107;SDS011;10712;52.944;9.098;2022-10-16T07:48:55;13.95;;;10.98;;
21107;SDS011;10712;52.944;9.098;2022-10-16T07:51:22;15.13;;;5.90;;
21107;SDS011;10712;52.944;9.098;2022-10-16T07:53:50;7.25;;;4.45;;
21107;SDS011;10712;52.944;9.098;2022-10-16T07:56:17;3.38;;;3.08;;
21107;SDS011;10712;52.944;9.098;2022-10-16T07:58:44;7.50;;;3.05;;
21107;SDS011;10712;52.944;9.098;2022-10-16T08:01:13;4.43;;;3.33;;
21107;SDS011;10712;52.944;9.098;2022-10-16T08:03:44;7.93;;;3.05;;
21107;SDS011;10712;52.944;9.098;2022-10-16T08:06:13;7.05;;;2.90;;
21107;SDS011;10712;52.944;9.098;2022-10-16T08:08:40;4.50;;;2.80;;
21107;SDS011;10712;52.944;9.098;2022-10-16T08:11:06;5.43;;;3.20;;
21107;SDS011;10712;52.944;9.098;2022-10-16T08:13:32;6.68;;;2.85;;
21107;SDS011;10712;52.944;9.098;2022-10-16T08:15:58;5.00;;;2.70;;
21107;SDS011;10712;52.944;9.098;2022-10-16T08:18:23;10.10;;;3.58;;
21107;SDS011;10712;52.944;9.098;2022-10-16T08:20:56;5.68;;;2.90;;
21107;SDS011;10712;52.944;9.098;2022-10-16T08:23:24;3.75;;;2.53;;
21107;SDS011;10712;52.944;9.098;2022-10-16T08:25:51;4.80;;;2.78;;
21107;SDS011;10712;52.944;9.098;2022-10-16T08:28:18;7.25;;;2.20;;
21107;SDS011;10712;52.944;9.098;2022-10-16T08:30:44;4.15;;;2.72;;
21107;SDS011;10712;52.944;9.098;2022-10-16T08:33:10;10.32;;;2.78;;
21107;SDS011;10712;52.944;9.098;2022-10-16T08:35:36;3.67;;;2.50;;
21107;SDS011;10712;52.944;9.098;2022-10-16T08:38:03;3.25;;;2.00;;
21107;SDS011;10712;52.944;9.098;2022-10-16T08:40:30;3.47;;;2.28;;
21107;SDS011;10712;52.944;9.098;2022-10-16T08:48:51;4.07;;;2.20;;
21107;SDS011;10712;52.944;9.098;2022-10-16T08:51:28;3.88;;;2.47;;
21107;SDS011;10712;52.944;9.098;2022-10-16T08:54:04;2.78;;;1.92;;
21107;SDS011;10712;52.944;9.098;2022-10-16T08:56:44;3.95;;;1.85;;
21107;SDS011;10712;52.944;9.098;2022-10-16T08:59:10;4.55;;;1.90;;
21107;SDS011;10712;52.944;9.098;2022-10-16T09:01:42;2.25;;;2.03;;
21107;SDS011;10712;52.944;9.098;2022-10-16T09:04:20;6.77;;;1.87;;
21107;SDS011;10712;52.944;9.098;2022-10-16T09:12:35;5.07;;;1.88;;
21107;SDS011;10712;52.944;9.098;2022-10-16T09:20:38;8.10;;;2.40;;
21107;SDS011;10712;52.944;9.098;2022-10-16T09:23:28;3.33;;;1.55;;
21107;SDS011;10712;52.944;9.098;2022-10-16T09:25:58;3.92;;;1.75;;
21107;SDS011;10712;52.944;9.098;2022-10-16T09:28:24;3.10;;;1.77;;
21107;SDS011;10712;52.944;9.098;2022-10-16T09:30:51;12.90;;;2.08;;
21107;SDS011;10712;52.944;9.098;2022-10-16T09:33:18;3.03;;;1.73;;
21107;SDS011;10712;52.944;9.098;2022-10-16T09:35:49;2.30;;;1.40;;
21107;SDS011;10712;52.944;9.098;2022-10-16T09:38:27;2.75;;;1.25;;
21107;SDS011;10712;52.944;9.098;2022-10-16T09:40:58;1.83;;;1.08;;
21107;SDS011;10712;52.944;9.098;2022-10-16T09:44:41;3.95;;;1.17;;
21107;SDS011;10712;52.944;9.098;2022-10-16T09:47:01;4.03;;;1.40;;
21107;SDS011;10712;52.944;9.098;2022-10-16T09:49:37;5.55;;;1.27;;
21107;SDS011;10712;52.944;9.098;2022-10-16T09:52:09;2.92;;;1.30;;
21107;SDS011;10712;52.944;9.098;2022-10-16T09:54:48;1.67;;;1.48;;
21107;SDS011;10712;52.944;9.098;2022-10-16T09:57:20;5.05;;;1.80;;
21107;SDS011;10712;52.944;9.098;2022-10-16T09:59:51;2.75;;;1.20;;
21107;SDS011;10712;52.944;9.098;2022-10-16T10:02:21;3.53;;;1.88;;
21107;SDS011;10712;52.944;9.098;2022-10-16T10:04:59;4.32;;;1.10;;
21107;SDS011;10712;52.944;9.098;2022-10-16T10:07:27;3.13;;;1.10;;
21107;SDS011;10712;52.944;9.098;2022-10-16T10:10:01;3.53;;;1.10;;
21107;SDS011;10712;52.944;9.098;2022-10-16T10:12:31;5.57;;;0.93;;
21107;SDS011;10712;52.944;9.098;2022-10-16T10:15:06;4.60;;;1.15;;
21107;SDS011;10712;52.944;9.098;2022-10-16T10:17:47;3.65;;;1.15;;
21107;SDS011;10712;52.944;9.098;2022-10-16T10:23:24;9.80;;;1.25;;
21107;SDS011;10712;52.944;9.098;2022-10-16T10:36:43;10.02;;;6.50;;
21107;SDS011;10712;52.944;9.098;2022-10-16T10:42:12;5.95;;;1.15;;
21107;SDS011;10712;52.944;9.098;2022-10-16T10:48:20;4.57;;;1.70;;
21107;SDS011;10712;52.944;9.098;2022-10-16T11:02:55;6.63;;;1.85;;
21107;SDS011;10712;52.944;9.098;2022-10-16T11:06:03;18.58;;;13.45;;
21107;SDS011;10712;52.944;9.098;2022-10-16T11:08:46;6.20;;;3.00;;
21107;SDS011;10712;52.944;9.098;2022-10-16T11:14:09;5.00;;;1.00;;
21107;SDS011;10712;52.944;9.098;2022-10-16T11:25:21;5.13;;;1.00;;
21107;SDS011;10712;52.944;9.098;2022-10-16T11:28:11;5.50;;;0.80;;
21107;SDS011;10712;52.944;9.098;2022-10-16T11:33:25;5.35;;;1.00;;
21107;SDS011;10712;52.944;9.098;2022-10-16T11:36:16;5.18;;;1.90;;
21107;SDS011;10712;52.944;9.098;2022-10-16T11:41:39;4.88;;;1.02;;
21107;SDS011;10712;52.944;9.098;2022-10-16T11:47:23;5.30;;;0.93;;
21107;SDS011;10712;52.944;9.098;2022-10-16T11:56:04;6.03;;;1.30;;
21107;SDS011;10712;52.944;9.098;2022-10-16T11:58:32;6.15;;;0.95;;
21107;SDS011;10712;52.944;9.098;2022-10-16T12:01:22;3.75;;;1.15;;
21107;SDS011;10712;52.944;9.098;2022-10-16T12:04:20;6.35;;;0.70;;
21107;SDS011;10712;52.944;9.098;2022-10-16T12:07:11;4.15;;;0.75;;
21107;SDS011;10712;52.944;9.098;2022-10-16T12:09:48;2.17;;;0.80;;
21107;SDS011;10712;52.944;9.098;2022-10-16T12:12:24;19.85;;;13.85;;
21107;SDS011;10712;52.944;9.098;2022-10-16T12:15:19;10.63;;;1.70;;
21107;SDS011;10712;52.944;9.098;2022-10-16T12:17:57;1.88;;;0.90;;
21107;SDS011;10712;52.944;9.098;2022-10-16T12:20:30;7.45;;;2.58;;
21107;SDS011;10712;52.944;9.098;2022-10-16T12:23:04;2.45;;;0.80;;
21107;SDS011;10712;52.944;9.098;2022-10-16T12:25:32;4.95;;;1.08;;
21107;SDS011;10712;52.944;9.098;2022-10-16T12:30:40;4.72;;;0.75;;
21107;SDS011;10712;52.944;9.098;2022-10-16T12:33:19;6.60;;;0.75;;
21107;SDS011;10712;52.944;9.098;2022-10-16T12:35:53;4.97;;;1.35;;
21107;SDS011;10712;52.944;9.098;2022-10-16T12:41:11;4.40;;;2.27;;
21107;SDS011;10712;52.944;9.098;2022-10-16T12:43:45;6.30;;;1.55;;
21107;SDS011;10712;52.944;9.098;2022-10-16T12:48:40;3.42;;;0.60;;
21107;SDS011;10712;52.944;9.098;2022-10-16T12:51:21;8.45;;;1.13;;
21107;SDS011;10712;52.944;9.098;2022-10-16T12:54:12;4.72;;;0.80;;
21107;SDS011;10712;52.944;9.098;2022-10-16T12:57:08;4.25;;;0.80;;
21107;SDS011;10712;52.944;9.098;2022-10-16T13:00:17;3.78;;;1.20;;
21107;SDS011;10712;52.944;9.098;2022-10-16T13:03:04;3.35;;;0.52;;
21107;SDS011;10712;52.944;9.098;2022-10-16T13:14:48;5.05;;;0.68;;
21107;SDS011;10712;52.944;9.098;2022-10-16T13:23:15;5.10;;;0.82;;
21107;SDS011;10712;52.944;9.098;2022-10-16T13:29:12;6.78;;;1.08;;
21107;SDS011;10712;52.944;9.098;2022-10-16T13:31:39;5.40;;;0.80;;
21107;SDS011;10712;52.944;9.098;2022-10-16T13:34:12;3.22;;;1.00;;
21107;SDS011;10712;52.944;9.098;2022-10-16T13:36:48;13.80;;;1.90;;
21107;SDS011;10712;52.944;9.098;2022-10-16T13:42:04;26.15;;;13.60;;
21107;SDS011;10712;52.944;9.098;2022-10-16T13:44:42;14.90;;;7.38;;
21107;SDS011;10712;52.944;9.098;2022-10-16T13:47:17;4.63;;;1.55;;
21107;SDS011;10712;52.944;9.098;2022-10-16T13:50:00;2.80;;;1.10;;
21107;SDS011;10712;52.944;9.098;2022-10-16T13:52:30;3.10;;;1.02;;
21107;SDS011;10712;52.944;9.098;2022-10-16T13:54:57;3.80;;;0.60;;
21107;SDS011;10712;52.944;9.098;2022-10-16T13:57:23;6.28;;;1.90;;
21107;SDS011;10712;52.944;9.098;2022-10-16T13:59:50;4.15;;;1.00;;
21107;SDS011;10712;52.944;9.098;2022-10-16T14:02:22;3.95;;;0.90;;
21107;SDS011;10712;52.944;9.098;2022-10-16T14:05:02;10.77;;;1.00;;
21107;SDS011;10712;52.944;9.098;2022-10-16T14:07:34;5.25;;;0.88;;
21107;SDS011;10712;52.944;9.098;2022-10-16T14:10:02;5.15;;;1.40;;
21107;SDS011;10712;52.944;9.098;2022-10-16T14:12:32;2.85;;;1.05;;
21107;SDS011;10712;52.944;9.098;2022-10-16T14:15:00;2.92;;;0.88;;
21107;SDS011;10712;52.944;9.098;2022-10-16T14:17:31;5.57;;;1.08;;
21107;SDS011;10712;52.944;9.098;2022-10-16T14:20:02;5.07;;;1.02;;
21107;SDS011;10712;52.944;9.098;2022-10-16T14:22:40;7.55;;;1.13;;
21107;SDS011;10712;52.944;9.098;2022-10-16T14:25:40;2.05;;;0.80;;
21107;SDS011;10712;52.944;9.098;2022-10-16T14:28:03;2.90;;;1.08;;
21107;SDS011;10712;52.944;9.098;2022-10-16T14:30:48;5.18;;;1.10;;
21107;SDS011;10712;52.944;9.098;2022-10-16T14:38:31;5.45;;;1.38;;
21107;SDS011;10712;52.944;9.098;2022-10-16T14:40:58;5.10;;;0.98;;
21107;SDS011;10712;52.944;9.098;2022-10-16T14:43:31;4.80;;;1.25;;
21107;SDS011;10712;52.944;9.098;2022-10-16T14:46:03;2.50;;;0.70;;
21107;SDS011;10712;52.944;9.098;2022-10-16T14:48:41;5.63;;;1.23;;
21107;SDS011;10712;52.944;9.098;2022-10-16T14:51:14;3.45;;;0.77;;
21107;SDS011;10712;52.944;9.098;2022-10-16T14:53:42;3.95;;;0.73;;
21107;SDS011;10712;52.944;9.098;2022-10-16T14:56:08;5.28;;;0.85;;
21107;SDS011;10712;52.944;9.098;2022-10-16T14:58:43;5.72;;;1.15;;
21107;SDS011;10712;52.944;9.098;2022-10-16T15:01:09;4.85;;;1.05;;
21107;SDS011;10712;52.944;9.098;2022-10-16T15:03:36;6.47;;;0.80;;
21107;SDS011;10712;52.944;9.098;2022-10-16T15:06:04;4.05;;;0.88;;
21107;SDS011;10712;52.944;9.098;2022-10-16T15:08:37;3.50;;;1.00;;
21107;SDS011;10712;52.944;9.098;2022-10-16T15:11:03;6.50;;;0.80;;
21107;SDS011;10712;52.944;9.098;2022-10-16T15:13:30;2.50;;;0.82;;
21107;SDS011;10712;52.944;9.098;2022-10-16T15:15:56;4.32;;;1.08;;
21107;SDS011;10712;52.944;9.098;2022-10-16T15:18:23;4.47;;;0.60;;
21107;SDS011;10712;52.944;9.098;2022-10-16T15:20:49;3.50;;;0.90;;
21107;SDS011;10712;52.944;9.098;2022-10-16T15:23:17;4.35;;;0.90;;
21107;SDS011;10712;52.944;9.098;2022-10-16T15:25:52;3.10;;;0.82;;
21107;SDS011;10712;52.944;9.098;2022-10-16T15:28:21;5.32;;;0.93;;
21107;SDS011;10712;52.944;9.098;2022-10-16T15:30:54;2.92;;;0.88;;
21107;SDS011;10712;52.944;9.098;2022-10-16T15:33:25;4.28;;;1.05;;
21107;SDS011;10712;52.944;9.098;2022-10-16T15:35:55;3.65;;;0.75;;
21107;SDS011;10712;52.944;9.098;2022-10-16T15:38:21;4.43;;;0.98;;
21107;SDS011;10712;52.944;9.098;2022-10-16T15:40:48;4.97;;;1.73;;
21107;SDS011;10712;52.944;9.098;2022-10-16T15:43:14;4.20;;;1.15;;
21107;SDS011;10712;52.944;9.098;2022-10-16T15:45:40;7.03;;;1.33;;
21107;SDS011;10712;52.944;9.098;2022-10-16T15:48:08;1.75;;;0.95;;
21107;SDS011;10712;52.944;9.098;2022-10-16T15:50:38;1.38;;;0.80;;
21107;SDS011;10712;52.944;9.098;2022-10-16T15:53:05;1.45;;;0.63;;
21107;SDS011;10712;52.944;9.098;2022-10-16T15:55:31;3.33;;;1.05;;
21107;SDS011;10712;52.944;9.098;2022-10-16T15:57:56;1.20;;;0.70;;
21107;SDS011;10712;52.944;9.098;2022-10-16T16:00:22;3.22;;;0.77;;
21107;SDS011;10712;52.944;9.098;2022-10-16T16:02:53;1.98;;;0.82;;
21107;SDS011;10712;52.944;9.098;2022-10-16T16:05:21;2.05;;;0.73;;
21107;SDS011;10712;52.944;9.098;2022-10-16T16:07:48;1.88;;;0.65;;
21107;SDS011;10712;52.944;9.098;2022-10-16T16:10:15;4.95;;;0.90;;
21107;SDS011;10712;52.944;9.098;2022-10-16T16:12:41;2.33;;;0.75;;
21107;SDS011;10712;52.944;9.098;2022-10-16T16:15:08;2.78;;;1.13;;
21107;SDS011;10712;52.944;9.098;2022-10-16T16:17:34;5.32;;;1.42;;
21107;SDS011;10712;52.944;9.098;2022-10-16T16:20:01;2.40;;;1.33;;
21107;SDS011;10712;52.944;9.098;2022-10-16T16:22:29;1.30;;;0.90;;
21107;SDS011;10712;52.944;9.098;2022-10-16T16:24:55;2.97;;;0.88;;
21107;SDS011;10712;52.944;9.098;2022-10-16T16:27:21;4.65;;;2.92;;
21107;SDS011;10712;52.944;9.098;2022-10-16T16:29:49;2.03;;;1.73;;
21107;SDS011;10712;52.944;9.098;2022-10-16T16:32:15;4.45;;;2.60;;
21107;SDS011;10712;52.944;9.098;2022-10-16T16:34:41;3.35;;;2.65;;
21107;SDS011;10712;52.944;9.098;2022-10-16T16:37:07;3.65;;;2.03;;
21107;SDS011;10712;52.944;9.098;2022-10-16T16:39:33;3.90;;;2.45;;
21107;SDS011;10712;52.944;9.098;2022-10-16T16:41:59;4.63;;;2.67;;
21107;SDS011;10712;52.944;9.098;2022-10-16T16:44:25;12.32;;;10.05;;
21107;SDS011;10712;52.944;9.098;2022-10-16T16:46:51;8.52;;;5.45;;
21107;SDS011;10712;52.944;9.098;2022-10-16T16:49:17;8.57;;;4.28;;
21107;SDS011;10712;52.944;9.098;2022-10-16T16:51:43;5.75;;;3.78;;
21107;SDS011;10712;52.944;9.098;2022-10-16T16:54:09;4.18;;;2.47;;
21107;SDS011;10712;52.944;9.098;2022-10-16T16:56:38;4.03;;;2.22;;
21107;SDS011;10712;52.944;9.098;2022-10-16T16:59:04;8.55;;;2.47;;
21107;SDS011;10712;52.944;9.098;2022-10-16T17:01:30;3.63;;;1.60;;
21107;SDS011;10712;52.944;9.098;2022-10-16T17:03:56;8.02;;;1.90;;
21107;SDS011;10712;52.944;9.098;2022-10-16T17:06:26;8.50;;;1.85;;
21107;SDS011;10712;52.944;9.098;2022-10-16T17:08:56;3.22;;;1.83;;
21107;SDS011;10712;52.944;9.098;2022-10-16T17:11:24;6.40;;;2.00;;